Aérodrome :
LOGIN :

S'inscrire | Disclaimer

   EN    FR    IT 

 










Légende :    VFR   VFR Marginal   IFR   IFR Intensif   IFR Très Intensif
Visi : 
Plafond : 
>= 8 km
>= 3000ft
5 à 8 km
1000 à 3000 ft
1500m à 5 km
500 à 1000 ft
800 à 1500m
200 à 500 ft
< 800m
< 200 ft
Symboles :   Orages  Brouillard  Fortes neiges  Fortes précipitations  Vent > 20 kt
SIGMETs :   Divers  Orages  Givrage  Turbulence  Onde Orograph.  Cendres Volcan.







- Altitude de l'aérodrome : 364 ft
- Code IATA : FRA


EDDF - Frankfurt Int.

DERNIER METAR :
  • 190320Z 23006KT 9999 MIFG FEW021 BKN100 14/13 Q1017 NOSIG

METARs EXPIRÉS :
  • 190250Z 19004KT 9999 MIFG FEW021 SCT110 14/13 Q1017 NOSIG
  • 190220Z 21004KT 9999 MIFG FEW021 SCT120 14/13 Q1017 NOSIG
  • 190150Z 21006KT 9999 MIFG FEW021 SCT120 14/13 Q1016 NOSIG
  • 190120Z 22004KT 9999 MIFG FEW021 BKN120 14/14 Q1016 NOSIG
  • 190050Z 23003KT 9999 MIFG FEW021 BKN110 15/14 Q1016 NOSIG

TAF TAF EDDF
Valide du 19 à 00h jusqu'au 20 à 06h UTC


182300Z 1900/2006 22006KT 9999 SCT030
PROB30
TEMPO 1903/1906 3000 BR BKN003
BECMG 1907/1910 24011KT
BECMG 1918/1920 23005KT
Pas de NOTAMs connus pour ce terrain.



MET'MAP, la Météo Aéronautique d'un coup d'oeil ! - Copyright ORBIFLY Décembre 2007 - Disclaimer

ORBIFLY MET'MAP TEAM :

Programmation & Développement : Alexandra Zaïnal
Conception & Développement : Baudouin d'Aumeries
Co-Programmation & Développement : Marc-Olivier Méhu
Soutien technique & logistique : Manuel Goepfert

Contact : metmap@orbifly.com




SOURCES & CREDITS :

   NOAA